createdAt,value
2019-03-29T00:01:37.579Z,57.90
2019-03-29T00:06:40.268Z,60.37
2019-03-29T00:11:42.972Z,64.50
2019-03-29T00:16:45.816Z,60.43
2019-03-29T00:21:48.401Z,68.10
2019-03-29T00:26:54.521Z,67.53
2019-03-29T00:31:57.046Z,75.33
2019-03-29T00:37:01.138Z,63.53
2019-03-29T00:42:06.988Z,70.93
2019-03-29T00:47:09.609Z,73.57
2019-03-29T00:52:12.204Z,69.30
2019-03-29T00:57:14.863Z,72.93
2019-03-29T01:02:19.062Z,69.17
2019-03-29T01:07:22.136Z,62.57
2019-03-29T01:12:26.199Z,70.57
2019-03-29T01:17:28.865Z,77.77
2019-03-29T01:22:32.016Z,65.20
2019-03-29T01:27:35.116Z,71.80
2019-03-29T01:32:37.738Z,70.63
2019-03-29T01:37:40.332Z,61.20
2019-03-29T01:42:45.032Z,69.63
2019-03-29T01:47:47.930Z,65.63
2019-03-29T01:52:50.480Z,59.43
2019-03-29T01:57:53.032Z,67.53
2019-03-29T02:02:55.586Z,73.43
2019-03-29T02:07:58.261Z,68.90
2019-03-29T02:13:03.160Z,60.77
2019-03-29T02:18:05.827Z,70.90
2019-03-29T02:23:08.460Z,65.77
2019-03-29T02:28:13.824Z,74.90
2019-03-29T02:33:16.435Z,64.83
2019-03-29T02:38:19.003Z,75.27
2019-03-29T02:43:23.870Z,59.93
2019-03-29T02:48:26.417Z,58.70
2019-03-29T02:53:31.385Z,67.73
2019-03-29T02:58:33.913Z,62.43
2019-03-29T03:03:39.527Z,60.70
2019-03-29T03:08:42.334Z,69.27
2019-03-29T03:13:46.169Z,66.13
2019-03-29T03:18:52.603Z,71.47
2019-03-29T03:23:55.254Z,75.00
2019-03-29T03:28:59.320Z,70.73
2019-03-29T03:34:02.511Z,66.33
2019-03-29T03:39:06.941Z,78.50
2019-03-29T03:44:09.536Z,62.13
2019-03-29T03:49:12.224Z,81.07
2019-03-29T03:54:16.413Z,75.53
2019-03-29T03:59:19.890Z,76.80
2019-03-29T04:04:26.213Z,75.57
2019-03-29T04:09:48.454Z,81.47
2019-03-29T04:14:36.272Z,71.43
2019-03-29T04:19:41.515Z,72.77
2019-03-29T04:24:44.149Z,74.93
2019-03-29T04:29:46.718Z,77.87
2019-03-29T04:34:51.513Z,90.10
2019-03-29T04:40:06.990Z,77.50
2019-03-29T04:44:59.947Z,82.70
2019-03-29T04:50:02.661Z,81.93
2019-03-29T04:55:05.625Z,90.10
2019-03-29T05:00:08.593Z,85.77
2019-03-29T05:05:12.726Z,78.53
2019-03-29T05:10:21.628Z,70.83
2019-03-29T05:15:20.953Z,80.77
2019-03-29T05:20:25.914Z,74.40
2019-03-29T05:25:28.576Z,92.20
2019-03-29T05:30:31.111Z,84.73
2019-03-29T05:35:33.776Z,80.93
2019-03-29T05:40:36.384Z,79.47
2019-03-29T05:45:41.624Z,79.23
2019-03-29T05:50:44.164Z,75.20
2019-03-29T05:55:48.468Z,82.13
2019-03-29T06:00:51.312Z,72.40
2019-03-29T06:05:54.067Z,87.30
2019-03-29T06:10:56.629Z,82.73
2019-03-29T06:15:59.446Z,82.27
2019-03-29T06:21:03.935Z,66.77
2019-03-29T06:26:06.492Z,88.03
2019-03-29T06:31:11.714Z,92.63
2019-03-29T06:36:16.003Z,73.33
2019-03-29T06:41:18.643Z,81.83
2019-03-29T06:46:21.440Z,90.67
2019-03-29T06:51:27.020Z,87.90
2019-03-29T06:56:29.919Z,80.47
2019-03-29T07:01:32.665Z,91.43
2019-03-29T07:06:40.199Z,80.57
2019-03-29T07:11:43.976Z,83.20
2019-03-29T07:16:46.781Z,75.27
2019-03-29T07:21:49.315Z,80.67
2019-03-29T07:26:52.203Z,80.50
2019-03-29T07:31:54.854Z,77.83
2019-03-29T07:36:57.670Z,84.73
2019-03-29T07:42:00.560Z,82.77
2019-03-29T07:47:09.142Z,82.20
2019-03-29T07:52:11.768Z,97.47
2019-03-29T07:57:21.158Z,106.93
2019-03-29T08:02:23.727Z,115.30
2019-03-29T08:07:27.715Z,117.47
2019-03-29T08:12:31.064Z,119.07
2019-03-29T08:17:35.634Z,123.03
2019-03-29T08:22:38.202Z,123.10
2019-03-29T08:27:42.152Z,107.80
2019-03-29T08:32:49.047Z,110.83
2019-03-29T08:37:52.259Z,115.13
2019-03-29T08:42:55.276Z,105.83
2019-03-29T08:47:59.253Z,112.73
2019-03-29T08:53:01.924Z,110.47
2019-03-29T08:58:04.660Z,115.40
2019-03-29T09:03:07.645Z,118.20
2019-03-29T09:08:15.265Z,113.93
2019-03-29T09:13:21.409Z,112.80
2019-03-29T09:18:26.107Z,114.67
2019-03-29T09:23:34.970Z,123.73
2019-03-29T09:28:39.801Z,127.23
2019-03-29T09:33:46.391Z,124.73
2019-03-29T09:38:50.029Z,125.17
2019-03-29T09:43:59.964Z,118.77
2019-03-29T09:49:08.656Z,113.63
2019-03-29T09:54:14.371Z,112.90
2019-03-29T09:59:33.418Z,117.40
2019-03-29T10:04:52.198Z,126.30
2019-03-29T10:10:03.240Z,124.47
2019-03-29T10:15:13.416Z,120.90
2019-03-29T10:20:18.308Z,112.77
2019-03-29T10:25:21.742Z,119.97
2019-03-29T10:30:38.274Z,114.97
2019-03-29T10:35:51.634Z,111.37
2019-03-29T10:40:47.030Z,107.37
2019-03-29T10:45:51.992Z,99.97
2019-03-29T10:50:54.534Z,101.67
2019-03-29T10:55:57.348Z,105.67
2019-03-29T11:00:59.893Z,100.13
2019-03-29T11:19:19.050Z,90.83
2019-03-29T11:24:22.123Z,86.50
2019-03-29T11:33:34.397Z,99.00
2019-03-29T11:38:36.980Z,96.13
2019-03-29T11:43:39.658Z,87.17
2019-03-29T11:48:44.072Z,93.67
2019-03-29T11:53:50.847Z,104.77
2019-03-29T11:58:52.261Z,105.47
2019-03-29T12:03:55.046Z,100.77
2019-03-29T12:08:57.627Z,107.33
2019-03-29T12:14:00.458Z,108.03
2019-03-29T12:37:43.988Z,99.10
2019-03-29T12:42:46.651Z,103.50
2019-03-29T12:51:33.864Z,94.73
2019-03-29T12:56:36.705Z,89.50
2019-03-29T13:01:40.841Z,91.07
2019-03-29T13:06:43.381Z,81.77
2019-03-29T13:11:46.033Z,86.23
2019-03-29T13:16:48.579Z,88.33
2019-03-29T13:21:51.159Z,82.73
2019-03-29T13:26:54.395Z,80.87
2019-03-29T13:31:57.342Z,82.10
2019-03-29T13:37:01.692Z,78.10
2019-03-29T13:42:04.901Z,74.20
2019-03-29T13:47:07.447Z,77.93
2019-03-29T13:52:14.237Z,84.50
2019-03-29T13:57:16.799Z,83.00
2019-03-29T14:02:19.688Z,84.57
2019-03-29T14:07:22.285Z,82.03
2019-03-29T14:12:25.226Z,73.20
2019-03-29T14:17:27.781Z,64.97
2019-03-29T14:22:30.668Z,74.17
2019-03-29T14:27:33.248Z,79.87
2019-03-29T14:32:36.070Z,75.90
2019-03-29T14:37:38.625Z,74.40
2019-03-29T14:42:41.443Z,74.60
2019-03-29T14:47:44.257Z,72.57
2019-03-29T14:52:49.497Z,71.50
2019-03-29T14:57:52.053Z,74.97
2019-03-29T15:02:54.803Z,75.60
2019-03-29T15:07:59.867Z,66.97
2019-03-29T15:13:02.435Z,67.20
2019-03-29T15:18:05.050Z,69.73
2019-03-29T15:23:07.736Z,73.80
2019-03-29T15:28:10.389Z,68.77
2019-03-29T15:33:19.195Z,66.83
2019-03-29T15:38:21.837Z,60.67
2019-03-29T15:43:24.606Z,59.07
2019-03-29T15:48:27.198Z,57.40
2019-03-29T15:53:32.204Z,63.73
2019-03-29T15:58:34.755Z,54.40
2019-03-29T16:03:38.871Z,55.17
2019-03-29T16:08:41.432Z,49.27
2019-03-29T16:13:46.796Z,48.40
2019-03-29T16:18:49.338Z,45.70
2019-03-29T16:23:52.014Z,41.57
2019-03-29T16:28:54.616Z,43.67
2019-03-29T16:33:57.231Z,45.93
2019-03-29T16:38:59.787Z,48.40
2019-03-29T16:44:05.495Z,42.50
2019-03-29T16:49:08.088Z,44.33
2019-03-29T16:54:10.633Z,46.27
2019-03-29T16:59:13.241Z,41.17
2019-03-29T17:04:15.834Z,45.17
2019-03-29T17:09:18.479Z,45.10
2019-03-29T17:14:21.032Z,46.53
2019-03-29T17:19:23.991Z,46.40
2019-03-29T17:24:26.525Z,49.23
2019-03-29T17:29:31.893Z,47.60
2019-03-29T17:34:34.454Z,46.33
2019-03-29T17:39:37.103Z,49.93
2019-03-29T17:44:40.875Z,88.73
2019-03-29T17:49:43.429Z,101.13
2019-03-29T17:54:48.707Z,107.00
2019-03-29T17:59:51.285Z,118.00
2019-03-29T18:04:53.878Z,118.07
2019-03-29T18:09:56.433Z,111.60
2019-03-29T18:15:00.425Z,108.50
2019-03-29T18:20:03.401Z,116.80
2019-03-29T18:25:06.124Z,117.00
2019-03-29T18:30:09.525Z,108.60
2019-03-29T18:35:12.202Z,121.40
2019-03-29T18:40:24.549Z,111.80
2019-03-29T18:45:27.170Z,121.57
2019-03-29T18:50:29.733Z,124.03
2019-03-29T18:55:32.315Z,119.80
2019-03-29T19:00:35.541Z,115.47
2019-03-29T19:05:38.132Z,127.47
2019-03-29T19:10:43.676Z,120.90
2019-03-29T19:15:46.255Z,128.23
2019-03-29T19:20:51.493Z,123.17
2019-03-29T19:25:56.850Z,135.37
2019-03-29T19:30:59.459Z,122.30
2019-03-29T19:36:02.333Z,123.70
2019-03-29T19:41:05.236Z,122.33
2019-03-29T19:46:09.257Z,131.53
2019-03-29T19:51:11.773Z,130.70
2019-03-29T19:56:16.331Z,132.97
2019-03-29T20:01:19.026Z,127.87
2019-03-29T20:06:21.673Z,128.63
2019-03-29T20:11:24.431Z,133.73
2019-03-29T20:16:27.121Z,137.37
2019-03-29T20:21:29.922Z,137.43
2019-03-29T20:26:32.525Z,143.27
2019-03-29T20:31:35.120Z,139.33
2019-03-29T20:36:37.683Z,151.97
2019-03-29T20:41:40.431Z,142.30
2019-03-29T20:46:43.043Z,141.43
2019-03-29T20:51:45.642Z,146.17
2019-03-29T20:56:48.457Z,144.37
2019-03-29T21:01:53.037Z,144.33
2019-03-29T21:06:55.614Z,156.07
2019-03-29T21:11:58.353Z,144.13
2019-03-29T21:17:02.337Z,151.17
2019-03-29T21:22:04.913Z,152.83
2019-03-29T21:27:07.607Z,154.77
2019-03-29T21:32:13.170Z,159.10
2019-03-29T21:37:15.727Z,159.60
2019-03-29T21:42:18.575Z,158.03
2019-03-29T21:47:21.129Z,165.77
2019-03-29T21:52:23.694Z,168.47
2019-03-29T21:57:29.272Z,166.97
2019-03-29T22:02:33.220Z,175.93
2019-03-29T22:07:35.798Z,167.80
2019-03-29T22:12:38.457Z,170.23
2019-03-29T22:17:41.367Z,170.23
2019-03-29T22:22:45.396Z,162.83
2019-03-29T22:27:47.950Z,167.90
2019-03-29T22:32:50.594Z,185.07
2019-03-29T22:37:53.135Z,186.10
2019-03-29T22:42:55.784Z,194.53
2019-03-29T22:47:59.482Z,188.07
2019-03-29T22:53:02.459Z,199.40
2019-03-29T22:58:05.036Z,190.83
2019-03-29T23:03:08.354Z,182.00
2019-03-29T23:08:10.896Z,200.77
2019-03-29T23:13:16.461Z,196.50
2019-03-29T23:18:21.780Z,183.83
2019-03-29T23:23:24.324Z,191.50
2019-03-29T23:28:26.867Z,188.33
2019-03-29T23:33:29.740Z,198.33
2019-03-29T23:38:32.367Z,194.97
2019-03-29T23:43:39.790Z,193.63
2019-03-29T23:48:45.484Z,191.13
2019-03-29T23:53:48.018Z,199.13
2019-03-29T23:58:50.687Z,194.07
